Terminal Aerodrome Forecast
Issued by NWS

Home | Current Version | Previous Version | Text Only | Print | Product List | Glossary Off
Versions: 1 2 3 4 5 6 7 8 9 10 11 12 13 14 15 16 17 18 19 20 21 22 23 24 25 26 27

000
FTUS43 KMPX 302200 AAA
TAFAXN
TAF AMD
KAXN 302225Z 3022/0118 13018G24KT P6SM VCSH SCT050 BKN080
      TEMPO 3022/0101 6SM SHRA BR BKN040
     FM010400 13017KT 6SM BR OVC015
     FM010600 14015KT 3SM BR OVC003
     FM011600 20011KT P6SM OVC015=

USA.gov is the U.S. government's official web portal to all federal, state and local government web resources and services.